Piney River, Virginia
Current Conditions -  °F | °C
As of 8:55 PM on Saturday 22 Nov 2014 (Local Time) from KW13 Reporting Station
Clear Clear  
Wind Chill: 38°   Ceiling: Unl
Heat Index: 38°   Visibility: 10mi
Dew Point: 17°   Wind: 3mph
Humidity: 42%   Direction: 220°SW
Pressure: 30.25"   Gusts: NA
Location:  37.71°N, 79.02°W
Report Text: KW13 230155Z AUTO 22003KT 10SM CLR 03/M08 A3025 RMK AO1 T00321085
Loading
Personal Weather Stations






























Interactive Weather Map New forecast layout! Learn more

10-Day Weather Forecast

Advertisements
Track Severe Weather on mobile